createdAt,value
2018-11-01T00:01:41.401Z,10.90
2018-11-01T00:04:10.085Z,11.13
2018-11-01T00:06:39.853Z,10.30
2018-11-01T00:09:09.851Z,11.10
2018-11-01T00:11:38.997Z,9.80
2018-11-01T00:14:08.221Z,9.90
2018-11-01T00:16:36.956Z,10.63
2018-11-01T00:19:06.465Z,10.30
2018-11-01T00:21:36.131Z,9.60
2018-11-01T00:24:04.797Z,10.07
2018-11-01T00:26:33.275Z,9.57
2018-11-01T00:29:01.916Z,8.47
2018-11-01T00:31:30.385Z,9.80
2018-11-01T00:33:58.923Z,9.43
2018-11-01T00:36:27.443Z,8.70
2018-11-01T00:38:57.072Z,8.73
2018-11-01T00:41:25.533Z,8.80
2018-11-01T00:43:54.035Z,8.70
2018-11-01T00:46:23.462Z,8.70
2018-11-01T00:48:53.013Z,8.33
2018-11-01T00:51:21.800Z,8.80
2018-11-01T00:53:51.345Z,9.70
2018-11-01T00:56:19.800Z,8.67
2018-11-01T00:58:51.780Z,8.83
2018-11-01T01:01:21.460Z,8.40
2018-11-01T01:03:50.725Z,8.40
2018-11-01T01:06:24.192Z,9.17
2018-11-01T01:08:53.426Z,9.00
2018-11-01T01:11:22.037Z,8.70
2018-11-01T01:13:50.516Z,8.90
2018-11-01T01:16:19.025Z,7.97
2018-11-01T01:18:47.952Z,8.50
2018-11-01T01:21:17.387Z,8.47
2018-11-01T01:23:45.851Z,8.60
2018-11-01T01:26:15.230Z,7.97
2018-11-01T01:28:43.780Z,8.13
2018-11-01T01:31:12.402Z,8.30
2018-11-01T01:33:41.057Z,8.30
2018-11-01T01:36:09.620Z,7.77
2018-11-01T01:38:38.079Z,7.53
2018-11-01T01:41:06.939Z,7.50
2018-11-01T01:43:36.171Z,7.73
2018-11-01T01:46:04.715Z,8.67
2018-11-01T01:48:33.357Z,8.10
2018-11-01T01:51:01.881Z,8.67
2018-11-01T01:53:30.581Z,8.13
2018-11-01T01:55:59.014Z,8.40
2018-11-01T01:58:27.649Z,8.80
2018-11-01T02:01:01.046Z,7.63
2018-11-01T02:03:29.691Z,7.67
2018-11-01T02:05:59.209Z,7.90
2018-11-01T02:08:27.743Z,7.57
2018-11-01T02:10:56.375Z,8.10
2018-11-01T02:13:24.830Z,8.07
2018-11-01T02:15:53.818Z,7.20
2018-11-01T02:18:22.970Z,7.83
2018-11-01T02:20:52.576Z,8.97
2018-11-01T02:23:21.277Z,8.07
2018-11-01T02:25:50.007Z,7.80
2018-11-01T02:28:19.633Z,8.07
2018-11-01T02:30:48.161Z,8.10
2018-11-01T02:33:17.854Z,8.90
2018-11-01T02:35:46.989Z,7.23
2018-11-01T02:38:15.964Z,7.10
2018-11-01T02:40:45.806Z,8.00
2018-11-01T02:43:14.369Z,7.80
2018-11-01T02:45:43.139Z,7.60
2018-11-01T02:48:11.595Z,7.20
2018-11-01T02:50:41.532Z,7.23
2018-11-01T02:53:10.558Z,7.50
2018-11-01T02:55:38.980Z,8.90
2018-11-01T02:58:07.861Z,6.70
2018-11-01T03:00:37.032Z,7.73
2018-11-01T03:03:06.207Z,7.67
2018-11-01T03:05:35.829Z,7.30
2018-11-01T03:08:04.295Z,7.27
2018-11-01T03:10:32.831Z,7.70
2018-11-01T03:13:01.541Z,7.27
2018-11-01T03:15:31.755Z,7.73
2018-11-01T03:18:00.343Z,7.70
2018-11-01T03:20:28.901Z,6.97
2018-11-01T03:22:58.518Z,7.60
2018-11-01T03:25:27.084Z,7.07
2018-11-01T03:27:55.624Z,7.33
2018-11-01T03:30:25.331Z,7.40
2018-11-01T03:32:53.880Z,8.00
2018-11-01T03:35:22.290Z,7.10
2018-11-01T03:37:51.463Z,7.10
2018-11-01T03:40:20.656Z,7.37
2018-11-01T03:42:49.773Z,8.10
2018-11-01T03:45:19.422Z,7.20
2018-11-01T03:47:47.967Z,7.50
2018-11-01T03:50:16.434Z,7.30
2018-11-01T03:52:44.986Z,7.93
2018-11-01T03:55:13.619Z,8.47
2018-11-01T03:57:43.266Z,7.93
2018-11-01T04:00:14.326Z,7.27
2018-11-01T04:02:44.376Z,8.90
2018-11-01T04:05:13.406Z,7.77
2018-11-01T04:07:42.328Z,7.30
2018-11-01T04:10:16.125Z,6.83
2018-11-01T04:12:45.283Z,7.70
2018-11-01T04:15:14.943Z,8.80
2018-11-01T04:17:43.520Z,7.73
2018-11-01T04:20:12.921Z,7.93
2018-11-01T04:22:42.150Z,8.23
2018-11-01T04:25:11.198Z,8.07
2018-11-01T04:27:39.641Z,7.20
2018-11-01T04:30:09.311Z,7.27
2018-11-01T04:32:37.748Z,8.80
2018-11-01T04:35:07.422Z,8.40
2018-11-01T04:37:36.852Z,8.40
2018-11-01T04:40:06.078Z,9.40
2018-11-01T04:42:35.010Z,8.07
2018-11-01T04:45:04.089Z,7.33
2018-11-01T04:47:33.824Z,7.77
2018-11-01T04:50:02.263Z,7.73
2018-11-01T04:52:30.775Z,9.13
2018-11-01T04:54:59.669Z,7.80
2018-11-01T04:57:28.298Z,8.23
2018-11-01T04:59:56.860Z,8.50
2018-11-01T05:02:25.464Z,8.37
2018-11-01T05:04:54.127Z,8.70
2018-11-01T05:07:22.656Z,8.20
2018-11-01T05:09:51.216Z,8.53
2018-11-01T05:12:19.672Z,8.23
2018-11-01T05:14:48.311Z,7.60
2018-11-01T05:17:16.824Z,8.40
2018-11-01T05:19:45.349Z,7.83
2018-11-01T05:22:14.023Z,8.00
2018-11-01T05:24:42.566Z,9.13
2018-11-01T05:27:11.091Z,8.73
2018-11-01T05:29:39.729Z,9.27
2018-11-01T05:32:08.914Z,8.70
2018-11-01T05:34:37.643Z,8.90
2018-11-01T05:37:06.679Z,8.77
2018-11-01T05:39:35.157Z,8.83
2018-11-01T05:42:03.717Z,7.80
2018-11-01T05:44:32.363Z,9.00
2018-11-01T05:47:02.104Z,8.33
2018-11-01T05:49:30.782Z,8.10
2018-11-01T05:51:59.668Z,8.47
2018-11-01T05:54:28.365Z,8.50
2018-11-01T05:56:58.031Z,8.50
2018-11-01T05:59:26.563Z,8.30
2018-11-01T06:01:59.794Z,9.13
2018-11-01T06:04:28.295Z,7.90
2018-11-01T06:06:56.772Z,8.50
2018-11-01T06:09:30.698Z,9.00
2018-11-01T06:12:00.499Z,9.77
2018-11-01T06:14:29.594Z,9.30
2018-11-01T06:16:58.495Z,9.50
2018-11-01T06:19:28.599Z,9.27
2018-11-01T06:21:58.172Z,9.20
2018-11-01T06:24:26.677Z,8.87
2018-11-01T06:26:55.352Z,8.43
2018-11-01T06:29:25.142Z,9.07
2018-11-01T06:31:53.639Z,10.90
2018-11-01T06:34:28.027Z,10.77
2018-11-01T06:36:57.552Z,10.13
2018-11-01T06:39:26.773Z,10.60
2018-11-01T06:41:55.536Z,11.40
2018-11-01T06:44:25.387Z,11.10
2018-11-01T06:46:54.658Z,11.03
2018-11-01T06:49:23.328Z,10.67
2018-11-01T06:51:52.790Z,9.67
2018-11-01T06:54:21.398Z,10.77
2018-11-01T06:56:50.688Z,11.10
2018-11-01T06:59:20.571Z,10.50
2018-11-01T07:01:49.016Z,10.63
2018-11-01T07:04:18.491Z,9.80
2018-11-01T07:06:46.973Z,11.17
2018-11-01T07:09:15.870Z,9.60
2018-11-01T07:11:45.255Z,9.70
2018-11-01T07:14:13.805Z,10.00
2018-11-01T07:16:42.378Z,9.30
2018-11-01T07:19:10.872Z,9.90
2018-11-01T07:21:40.664Z,9.37
2018-11-01T07:24:09.163Z,9.57
2018-11-01T07:26:37.807Z,9.70
2018-11-01T07:29:06.290Z,9.70
2018-11-01T07:31:34.743Z,9.50
2018-11-01T07:34:03.272Z,9.13
2018-11-01T07:36:32.789Z,9.67
2018-11-01T07:39:02.521Z,8.80
2018-11-01T07:41:31.076Z,8.63
2018-11-01T07:43:59.549Z,10.10
2018-11-01T07:46:28.139Z,9.23
2018-11-01T07:48:56.665Z,8.87
2018-11-01T07:51:26.182Z,8.90
2018-11-01T07:53:55.202Z,9.90
2018-11-01T07:56:23.730Z,9.13
2018-11-01T07:58:52.274Z,10.17
2018-11-01T08:01:20.783Z,8.70
2018-11-01T08:03:49.408Z,8.43
2018-11-01T08:06:19.454Z,8.93
2018-11-01T08:08:48.334Z,8.70
2018-11-01T08:11:17.240Z,8.13
2018-11-01T08:13:46.219Z,8.53
2018-11-01T08:16:16.280Z,8.23
2018-11-01T08:18:45.317Z,8.97
2018-11-01T08:21:13.965Z,9.20
2018-11-01T08:23:42.763Z,8.50
2018-11-01T08:26:12.465Z,10.23
2018-11-01T08:28:41.114Z,9.27
2018-11-01T08:31:09.712Z,8.30
2018-11-01T08:33:38.306Z,9.53
2018-11-01T08:36:06.974Z,9.00
2018-11-01T08:38:36.886Z,9.90
2018-11-01T08:41:06.643Z,9.90
2018-11-01T08:43:35.213Z,9.33
2018-11-01T08:46:04.042Z,8.50
2018-11-01T08:48:32.589Z,10.00
2018-11-01T08:51:01.868Z,8.93
2018-11-01T08:53:31.088Z,9.37
2018-11-01T08:55:59.788Z,9.63
2018-11-01T08:58:29.262Z,10.07
2018-11-01T09:00:58.725Z,10.70
2018-11-01T09:03:27.393Z,10.93
2018-11-01T09:05:56.982Z,10.30
2018-11-01T09:08:26.327Z,9.93
2018-11-01T09:10:54.871Z,9.47
2018-11-01T09:13:28.591Z,10.30
2018-11-01T09:15:57.533Z,11.37
2018-11-01T09:18:27.811Z,11.83
2018-11-01T09:20:57.391Z,11.70
2018-11-01T09:23:26.273Z,10.83
2018-11-01T09:25:55.178Z,11.00
2018-11-01T09:28:23.859Z,12.30
2018-11-01T09:30:52.581Z,12.10
2018-11-01T09:33:25.802Z,12.53
2018-11-01T09:35:54.279Z,13.57
2018-11-01T09:38:23.501Z,12.50
2018-11-01T09:40:52.193Z,12.23
2018-11-01T09:43:20.916Z,11.07
2018-11-01T09:45:49.422Z,11.20
2018-11-01T09:48:19.070Z,12.30
2018-11-01T09:50:47.646Z,10.77
2018-11-01T09:53:16.344Z,11.17
2018-11-01T09:55:44.932Z,12.43
2018-11-01T09:58:15.446Z,11.47
2018-11-01T10:00:43.954Z,11.53
2018-11-01T10:03:13.355Z,11.83
2018-11-01T10:05:56.693Z,11.17
2018-11-01T10:08:25.226Z,11.60
2018-11-01T10:10:53.865Z,11.53
2018-11-01T10:13:25.450Z,12.60
2018-11-01T10:15:57.076Z,11.73
2018-11-01T10:18:33.729Z,11.20
2018-11-01T10:21:04.151Z,12.20
2018-11-01T10:23:36.471Z,11.93
2018-11-01T10:26:06.727Z,11.50
2018-11-01T10:28:37.682Z,10.77
2018-11-01T10:31:07.049Z,12.40
2018-11-01T10:33:36.199Z,12.63
2018-11-01T10:36:05.919Z,11.23
2018-11-01T10:38:35.811Z,13.07
2018-11-01T10:41:05.240Z,12.47
2018-11-01T10:43:34.472Z,12.03
2018-11-01T10:46:05.101Z,11.83
2018-11-01T10:48:33.866Z,12.30
2018-11-01T10:51:09.183Z,12.20
2018-11-01T10:53:38.397Z,11.07
2018-11-01T10:56:10.592Z,10.70
2018-11-01T10:58:41.637Z,10.20
2018-11-01T11:01:15.592Z,9.80
2018-11-01T11:03:45.647Z,9.53
2018-11-01T11:06:14.875Z,10.70
2018-11-01T11:08:44.784Z,10.30
2018-11-01T11:11:14.627Z,9.97
2018-11-01T11:13:43.297Z,10.63
2018-11-01T11:16:12.279Z,10.67
2018-11-01T11:18:40.872Z,10.60
2018-11-01T11:21:09.824Z,10.27
2018-11-01T11:23:38.662Z,10.80
2018-11-01T11:26:08.560Z,10.77
2018-11-01T11:28:37.182Z,10.63
2018-11-01T11:31:06.690Z,9.63
2018-11-01T11:33:35.849Z,9.80
2018-11-01T11:36:04.755Z,9.80
2018-11-01T11:38:33.296Z,9.63
2018-11-01T11:41:01.996Z,9.10
2018-11-01T11:43:46.447Z,10.30
2018-11-01T11:46:20.929Z,9.27
2018-11-01T11:48:50.835Z,10.20
2018-11-01T11:51:30.378Z,9.20
2018-11-01T11:54:13.845Z,9.40
2018-11-01T11:56:49.189Z,9.40
2018-11-01T11:59:17.811Z,10.40
2018-11-01T12:01:47.281Z,9.87
2018-11-01T12:04:16.685Z,9.17
2018-11-01T12:06:50.131Z,9.60
2018-11-01T12:09:21.677Z,9.30
2018-11-01T12:11:56.589Z,8.73
2018-11-01T12:14:33.143Z,9.87
2018-11-01T12:17:13.792Z,9.43
2018-11-01T12:19:47.155Z,9.23
2018-11-01T12:22:19.391Z,9.60
2018-11-01T12:24:51.555Z,9.77
2018-11-01T12:27:50.013Z,9.13
2018-11-01T12:30:18.518Z,9.47
2018-11-01T12:32:48.738Z,9.50
2018-11-01T12:35:17.800Z,8.90
2018-11-01T12:37:46.378Z,8.87
2018-11-01T12:40:16.221Z,9.60
2018-11-01T12:42:45.771Z,9.40
2018-11-01T12:45:15.964Z,8.13
2018-11-01T12:47:46.881Z,8.90
2018-11-01T12:50:22.441Z,8.33
2018-11-01T12:52:53.046Z,8.60
2018-11-01T12:55:21.640Z,8.70
2018-11-01T12:57:50.801Z,9.40
2018-11-01T13:00:36.120Z,9.00
2018-11-01T13:03:06.165Z,8.70
2018-11-01T13:05:38.184Z,9.50
2018-11-01T13:08:09.701Z,8.27
2018-11-01T13:10:39.223Z,8.90
2018-11-01T13:13:11.857Z,9.60
2018-11-01T13:15:42.741Z,9.80
2018-11-01T13:18:14.258Z,9.47
2018-11-01T13:20:49.080Z,9.27
2018-11-01T13:23:22.276Z,9.13
2018-11-01T13:25:50.795Z,9.40
2018-11-01T13:28:33.104Z,9.93
2018-11-01T13:31:06.736Z,8.93
2018-11-01T13:33:36.428Z,9.93
2018-11-01T13:36:06.225Z,9.33
2018-11-01T13:38:40.571Z,8.83
2018-11-01T13:41:09.512Z,9.10
2018-11-01T13:43:40.682Z,8.60
2018-11-01T13:46:11.528Z,9.37
2018-11-01T13:48:41.669Z,9.43
2018-11-01T13:51:15.730Z,8.80
2018-11-01T13:53:47.263Z,8.50
2018-11-01T13:56:20.834Z,8.90
2018-11-01T13:58:57.038Z,8.60
2018-11-01T14:01:27.345Z,7.63
2018-11-01T14:03:58.053Z,7.70
2018-11-01T14:06:31.424Z,6.53
2018-11-01T14:09:02.521Z,6.40
2018-11-01T14:11:37.032Z,6.03
2018-11-01T14:14:07.982Z,5.90
2018-11-01T14:16:40.336Z,5.03
2018-11-01T14:19:17.365Z,5.77
2018-11-01T14:21:46.628Z,5.63
2018-11-01T14:24:15.621Z,4.70
2018-11-01T14:26:45.178Z,4.63
2018-11-01T14:29:13.931Z,3.70
2018-11-01T14:31:42.626Z,3.03
2018-11-01T14:34:11.407Z,3.43
2018-11-01T14:36:40.847Z,2.87
2018-11-01T14:39:11.535Z,3.17
2018-11-01T14:41:41.011Z,2.67
2018-11-01T14:44:11.034Z,3.00
2018-11-01T14:46:40.842Z,2.70
2018-11-01T14:49:10.191Z,2.80
2018-11-01T14:51:39.412Z,3.03
2018-11-01T14:54:09.695Z,2.93
2018-11-01T14:56:38.989Z,2.90
2018-11-01T14:59:07.937Z,3.20
2018-11-01T15:01:36.248Z,2.97
2018-11-01T15:04:05.475Z,3.10
2018-11-01T15:06:34.159Z,3.00
2018-11-01T15:09:03.989Z,2.70
2018-11-01T15:11:32.778Z,3.20
2018-11-01T15:14:01.964Z,3.00
2018-11-01T15:16:33.839Z,3.57
2018-11-01T15:19:03.547Z,3.10
2018-11-01T15:21:32.330Z,3.00
2018-11-01T15:24:00.974Z,3.50
2018-11-01T15:26:30.690Z,3.40
2018-11-01T15:29:00.116Z,3.43
2018-11-01T15:31:29.797Z,4.50
2018-11-01T15:34:10.704Z,3.60
2018-11-01T15:36:39.544Z,3.80
2018-11-01T15:39:10.993Z,4.40
2018-11-01T15:41:52.265Z,3.40
2018-11-01T15:44:24.082Z,4.17
2018-11-01T15:46:57.002Z,3.40
2018-11-01T15:49:32.826Z,4.07
2018-11-01T15:52:03.711Z,3.80
2018-11-01T15:54:35.178Z,3.93
2018-11-01T15:57:04.728Z,3.73
2018-11-01T15:59:34.138Z,4.40
2018-11-01T16:05:09.126Z,4.30
2018-11-01T16:07:37.863Z,5.07
2018-11-01T16:10:07.694Z,4.40
2018-11-01T16:12:37.326Z,4.70
2018-11-01T16:15:09.846Z,5.00
2018-11-01T16:17:38.428Z,4.63
2018-11-01T16:20:08.321Z,5.57
2018-11-01T16:22:39.285Z,4.70
2018-11-01T16:25:08.038Z,5.00
2018-11-01T16:27:37.424Z,4.93
2018-11-01T16:30:07.019Z,5.17
2018-11-01T16:32:36.629Z,4.70
2018-11-01T16:35:06.199Z,5.10
2018-11-01T16:37:37.024Z,5.47
2018-11-01T16:40:07.584Z,5.60
2018-11-01T16:42:37.259Z,6.53
2018-11-01T16:45:07.931Z,5.80
2018-11-01T16:47:37.727Z,6.30
2018-11-01T16:50:07.673Z,5.57
2018-11-01T16:52:38.576Z,6.10
2018-11-01T16:55:08.046Z,7.20
2018-11-01T16:57:37.975Z,8.00
2018-11-01T17:00:09.132Z,11.80
2018-11-01T17:02:39.543Z,19.97
2018-11-01T17:05:09.742Z,15.00
2018-11-01T17:07:40.397Z,16.13
2018-11-01T17:10:10.602Z,19.47
2018-11-01T17:12:40.894Z,15.00
2018-11-01T17:15:12.680Z,17.90
2018-11-01T17:17:42.633Z,18.73
2018-11-01T17:20:11.407Z,20.70
2018-11-01T17:22:42.526Z,20.37
2018-11-01T17:25:11.484Z,17.13
2018-11-01T17:27:41.933Z,16.10
2018-11-01T17:30:11.020Z,16.07
2018-11-01T17:32:45.286Z,15.37
2018-11-01T17:35:14.513Z,15.20
2018-11-01T17:37:48.257Z,14.43
2018-11-01T17:40:18.141Z,12.60
2018-11-01T17:42:47.005Z,13.63
2018-11-01T17:45:17.688Z,18.07
2018-11-01T17:47:47.460Z,15.37
2018-11-01T17:50:16.960Z,11.90
2018-11-01T17:52:46.083Z,12.70
2018-11-01T17:55:15.202Z,14.50
2018-11-01T17:57:45.383Z,15.73
2018-11-01T18:00:15.381Z,13.70
2018-11-01T18:02:44.984Z,15.70
2018-11-01T18:05:15.658Z,16.43
2018-11-01T18:07:47.969Z,15.93
2018-11-01T18:10:17.445Z,18.13
2018-11-01T18:12:48.025Z,17.30
2018-11-01T18:15:18.865Z,17.43
2018-11-01T18:17:49.313Z,14.30
2018-11-01T18:20:21.050Z,14.20
2018-11-01T18:22:51.277Z,15.03
2018-11-01T18:25:25.343Z,15.50
2018-11-01T18:27:55.790Z,21.17
2018-11-01T18:30:25.580Z,16.87
2018-11-01T18:32:55.149Z,14.23
2018-11-01T18:35:25.282Z,14.03
2018-11-01T18:37:55.486Z,14.33
2018-11-01T18:40:26.585Z,15.80
2018-11-01T18:42:57.315Z,16.83
2018-11-01T18:45:27.709Z,17.10
2018-11-01T18:47:58.036Z,16.10
2018-11-01T18:50:28.484Z,15.40
2018-11-01T18:55:56.436Z,16.60
2018-11-01T18:58:28.278Z,16.30
2018-11-01T19:00:59.171Z,14.87
2018-11-01T19:03:31.561Z,14.30
2018-11-01T19:06:06.289Z,15.50
2018-11-01T19:08:36.266Z,17.23
2018-11-01T19:11:09.015Z,17.00
2018-11-01T19:13:39.080Z,16.80
2018-11-01T19:16:10.201Z,15.87
2018-11-01T19:18:39.048Z,14.27
2018-11-01T19:21:09.641Z,11.23
2018-11-01T19:23:40.710Z,11.07
2018-11-01T19:26:10.811Z,12.20
2018-11-01T19:28:40.326Z,8.33
2018-11-01T19:31:09.101Z,10.73
2018-11-01T19:33:38.486Z,8.53
2018-11-01T19:36:07.262Z,7.67
2018-11-01T19:38:37.093Z,5.80
2018-11-01T19:41:06.024Z,4.50
2018-11-01T19:43:35.865Z,3.40
2018-11-01T19:46:05.329Z,3.20
2018-11-01T19:48:35.756Z,3.60
2018-11-01T19:51:04.342Z,3.00
2018-11-01T19:53:33.653Z,3.73
2018-11-01T19:56:02.259Z,3.97
2018-11-01T19:58:30.879Z,3.70
2018-11-01T20:01:01.068Z,3.40
2018-11-01T20:03:32.133Z,3.60
2018-11-01T20:06:02.342Z,3.63
2018-11-01T20:08:37.370Z,3.40
2018-11-01T20:11:09.948Z,3.30
2018-11-01T20:13:45.982Z,4.20
2018-11-01T20:16:17.386Z,5.40
2018-11-01T20:18:46.726Z,5.30
2018-11-01T20:21:17.353Z,4.37
2018-11-01T20:23:48.900Z,3.80
2018-11-01T20:26:18.563Z,4.07
2018-11-01T20:28:49.772Z,4.63
2018-11-01T20:31:19.911Z,4.50
2018-11-01T20:33:52.211Z,5.93
2018-11-01T20:36:23.543Z,5.50
2018-11-01T20:38:55.117Z,6.00
2018-11-01T20:41:26.777Z,6.00
2018-11-01T20:43:55.407Z,6.20
2018-11-01T20:46:24.727Z,6.27
2018-11-01T20:48:54.252Z,4.63
2018-11-01T20:51:22.931Z,5.30
2018-11-01T20:53:51.470Z,4.60
2018-11-01T20:56:24.976Z,6.37
2018-11-01T20:58:54.724Z,7.30
2018-11-01T21:01:24.176Z,6.50
2018-11-01T21:03:53.544Z,5.27
2018-11-01T21:06:22.187Z,5.57
2018-11-01T21:08:50.796Z,4.83
2018-11-01T21:11:19.997Z,6.37
2018-11-01T21:13:48.647Z,6.40
2018-11-01T21:16:17.303Z,6.00
2018-11-01T21:18:47.352Z,6.87
2018-11-01T21:21:17.374Z,6.40
2018-11-01T21:23:47.084Z,7.27
2018-11-01T21:26:17.195Z,6.20
2018-11-01T21:28:48.044Z,8.43
2018-11-01T21:31:17.909Z,7.83
2018-11-01T21:33:47.928Z,7.50
2018-11-01T21:36:16.594Z,7.83
2018-11-01T21:38:47.848Z,8.27
2018-11-01T21:41:16.648Z,6.07
2018-11-01T21:43:51.288Z,6.60
2018-11-01T21:46:21.504Z,6.60
2018-11-01T21:48:50.162Z,7.63
2018-11-01T21:51:18.779Z,7.00
2018-11-01T21:53:47.333Z,6.40
2018-11-01T21:56:16.901Z,6.40
2018-11-01T21:58:45.447Z,6.10
2018-11-01T22:01:14.804Z,6.63
2018-11-01T22:03:43.523Z,7.90
2018-11-01T22:06:13.179Z,10.57
2018-11-01T22:08:42.738Z,7.70
2018-11-01T22:11:11.826Z,9.30
2018-11-01T22:13:40.824Z,8.43
2018-11-01T22:16:11.739Z,8.73
2018-11-01T22:18:41.075Z,8.77
2018-11-01T22:21:09.622Z,8.60
2018-11-01T22:23:38.205Z,8.30
2018-11-01T22:26:07.912Z,8.00
2018-11-01T22:28:36.452Z,8.20
2018-11-01T22:31:06.006Z,7.77
2018-11-01T22:33:35.283Z,7.40
2018-11-01T22:36:04.795Z,7.03
2018-11-01T22:38:34.369Z,6.83
2018-11-01T22:41:03.005Z,7.83
2018-11-01T22:43:32.286Z,7.67
2018-11-01T22:46:01.595Z,5.77
2018-11-01T22:48:30.117Z,6.30
2018-11-01T22:50:59.504Z,5.43
2018-11-01T22:53:28.017Z,5.83
2018-11-01T22:55:57.307Z,5.90
2018-11-01T22:58:25.959Z,6.67
2018-11-01T23:00:54.666Z,5.50
2018-11-01T23:03:23.837Z,5.63
2018-11-01T23:05:52.916Z,5.23
2018-11-01T23:08:22.050Z,5.90
2018-11-01T23:10:50.631Z,8.13
2018-11-01T23:13:19.737Z,9.60
2018-11-01T23:15:48.339Z,9.83
2018-11-01T23:18:17.258Z,9.87
2018-11-01T23:20:45.938Z,9.93
2018-11-01T23:23:14.505Z,10.10
2018-11-01T23:25:43.011Z,10.47
2018-11-01T23:28:12.962Z,8.70
2018-11-01T23:30:42.054Z,10.23
2018-11-01T23:33:11.554Z,9.60
2018-11-01T23:35:40.117Z,9.33
2018-11-01T23:38:14.627Z,9.30
2018-11-01T23:40:48.336Z,9.33
2018-11-01T23:43:22.288Z,9.00
2018-11-01T23:45:56.625Z,8.53
2018-11-01T23:48:24.313Z,8.60
2018-11-01T23:53:45.570Z,8.77
2018-11-01T23:56:15.606Z,9.10
2018-11-01T23:58:45.153Z,8.70
